Amherst, Canada
Current Conditions -  °F | °C
As of 1:00 AM on Sunday 26 Oct 2014 (Local Time) from CYQM Reporting Station
Overcast Overcast  
Wind Chill: 37°   Ceiling: 500
Heat Index: 41°   Visibility: 12mi
Dew Point: 39°   Wind: 6mph
Humidity: 93%   Direction: 270°W
Pressure: 29.48"   Gusts: NA
Location:  45.85°N, 64.27°W
Report Text: CYQM 260400Z 27005KT 12SM OVC005 05/04 A2948 RMK SF8 SLP986
Loading
Personal Weather Stations






























Interactive Weather Map New forecast layout! Learn more

10-Day Weather Forecast

Advertisements
Track Severe Weather on mobile